sensor_id;sensor_type;location;lat;lon;timestamp;pressure;altitude;pressure_sealevel;temperature;humidity
11525;BME280;5819;49.648;8.330;2022-10-16T00:00:57;99859.59;;;14.84;100.00
11525;BME280;5819;49.648;8.330;2022-10-16T00:03:25;99871.00;;;14.83;100.00
11525;BME280;5819;49.648;8.330;2022-10-16T00:05:59;99882.53;;;14.80;100.00
11525;BME280;5819;49.648;8.330;2022-10-16T00:08:27;99865.13;;;14.79;100.00
11525;BME280;5819;49.648;8.330;2022-10-16T00:10:59;99866.59;;;14.83;100.00
11525;BME280;5819;49.648;8.330;2022-10-16T00:13:28;99878.94;;;14.81;100.00
11525;BME280;5819;49.648;8.330;2022-10-16T00:15:57;99869.22;;;14.83;100.00
11525;BME280;5819;49.648;8.330;2022-10-16T00:18:25;99868.91;;;14.88;100.00
11525;BME280;5819;49.648;8.330;2022-10-16T00:20:53;99861.25;;;14.85;100.00
11525;BME280;5819;49.648;8.330;2022-10-16T00:23:27;99876.94;;;14.85;100.00
11525;BME280;5819;49.648;8.330;2022-10-16T00:25:56;99881.47;;;14.83;100.00
11525;BME280;5819;49.648;8.330;2022-10-16T00:28:24;99874.44;;;14.83;100.00
11525;BME280;5819;49.648;8.330;2022-10-16T00:30:52;99884.19;;;14.81;100.00
11525;BME280;5819;49.648;8.330;2022-10-16T00:33:20;99898.97;;;14.82;100.00
11525;BME280;5819;49.648;8.330;2022-10-16T00:35:48;99885.03;;;14.82;100.00
11525;BME280;5819;49.648;8.330;2022-10-16T00:38:17;99883.25;;;14.82;100.00
11525;BME280;5819;49.648;8.330;2022-10-16T00:40:46;99887.44;;;14.85;100.00
11525;BME280;5819;49.648;8.330;2022-10-16T00:45:57;99894.56;;;14.83;100.00
11525;BME280;5819;49.648;8.330;2022-10-16T00:48:25;99895.41;;;14.83;100.00
11525;BME280;5819;49.648;8.330;2022-10-16T00:50:53;99890.16;;;14.83;100.00
11525;BME280;5819;49.648;8.330;2022-10-16T00:53:21;99885.66;;;14.85;100.00
11525;BME280;5819;49.648;8.330;2022-10-16T00:55:51;99883.25;;;14.82;100.00
11525;BME280;5819;49.648;8.330;2022-10-16T00:58:19;99871.00;;;14.83;100.00
11525;BME280;5819;49.648;8.330;2022-10-16T01:00:47;99880.00;;;14.79;100.00
11525;BME280;5819;49.648;8.330;2022-10-16T01:03:24;99884.38;;;14.78;100.00
11525;BME280;5819;49.648;8.330;2022-10-16T01:06:03;99895.81;;;14.77;100.00
11525;BME280;5819;49.648;8.330;2022-10-16T01:08:39;99897.47;;;14.78;100.00
11525;BME280;5819;49.648;8.330;2022-10-16T01:11:17;99890.25;;;14.82;100.00
11525;BME280;5819;49.648;8.330;2022-10-16T01:13:53;99885.78;;;14.84;100.00
11525;BME280;5819;49.648;8.330;2022-10-16T01:16:29;99872.47;;;14.87;100.00
11525;BME280;5819;49.648;8.330;2022-10-16T01:19:05;99886.63;;;14.84;100.00
11525;BME280;5819;49.648;8.330;2022-10-16T01:21:40;99890.16;;;14.83;100.00
11525;BME280;5819;49.648;8.330;2022-10-16T01:24:17;99895.41;;;14.83;100.00
11525;BME280;5819;49.648;8.330;2022-10-16T01:27:03;99880.84;;;14.79;100.00
11525;BME280;5819;49.648;8.330;2022-10-16T01:29:36;99895.50;;;14.82;100.00
11525;BME280;5819;49.648;8.330;2022-10-16T01:32:20;99906.59;;;14.85;100.00
11525;BME280;5819;49.648;8.330;2022-10-16T01:34:51;99897.09;;;14.84;100.00
11525;BME280;5819;49.648;8.330;2022-10-16T01:37:26;99907.75;;;14.81;100.00
11525;BME280;5819;49.648;8.330;2022-10-16T01:39:58;99912.13;;;14.81;100.00
11525;BME280;5819;49.648;8.330;2022-10-16T01:42:33;99920.44;;;14.87;100.00
11525;BME280;5819;49.648;8.330;2022-10-16T01:45:05;99923.06;;;14.87;100.00
11525;BME280;5819;49.648;8.330;2022-10-16T01:47:35;99916.97;;;14.87;100.00
11525;BME280;5819;49.648;8.330;2022-10-16T01:50:04;99901.38;;;14.85;100.00
11525;BME280;5819;49.648;8.330;2022-10-16T01:52:35;99894.66;;;14.81;100.00
11525;BME280;5819;49.648;8.330;2022-10-16T01:55:06;99907.88;;;14.80;100.00
11525;BME280;5819;49.648;8.330;2022-10-16T01:57:40;99907.25;;;14.76;100.00
11525;BME280;5819;49.648;8.330;2022-10-16T02:00:11;99903.56;;;14.79;100.00
11525;BME280;5819;49.648;8.330;2022-10-16T02:02:42;99909.09;;;14.74;100.00
11525;BME280;5819;49.648;8.330;2022-10-16T02:05:16;99916.13;;;14.74;100.00
11525;BME280;5819;49.648;8.330;2022-10-16T02:07:47;99905.56;;;14.75;100.00
11525;BME280;5819;49.648;8.330;2022-10-16T02:10:15;99901.25;;;14.74;100.00
11525;BME280;5819;49.648;8.330;2022-10-16T02:12:46;99895.91;;;14.76;100.00
11525;BME280;5819;49.648;8.330;2022-10-16T02:15:17;99903.88;;;14.74;100.00
11525;BME280;5819;49.648;8.330;2022-10-16T02:17:44;99905.56;;;14.75;100.00
11525;BME280;5819;49.648;8.330;2022-10-16T02:20:12;99905.34;;;14.78;100.00
11525;BME280;5819;49.648;8.330;2022-10-16T02:22:43;99906.41;;;14.76;100.00
11525;BME280;5819;49.648;8.330;2022-10-16T02:25:17;99917.81;;;14.75;100.00
11525;BME280;5819;49.648;8.330;2022-10-16T02:27:50;99911.72;;;14.74;100.00
11525;BME280;5819;49.648;8.330;2022-10-16T02:30:24;99913.41;;;14.75;100.00
11525;BME280;5819;49.648;8.330;2022-10-16T02:32:53;99920.13;;;14.79;100.00
11525;BME280;5819;49.648;8.330;2022-10-16T02:35:23;99915.59;;;14.81;100.00
11525;BME280;5819;49.648;8.330;2022-10-16T02:37:52;99912.81;;;14.84;100.00
11525;BME280;5819;49.648;8.330;2022-10-16T02:40:20;99908.19;;;14.88;100.00
11525;BME280;5819;49.648;8.330;2022-10-16T02:42:53;99907.97;;;14.91;100.00
11525;BME280;5819;49.648;8.330;2022-10-16T02:45:22;99906.19;;;14.91;100.00
11525;BME280;5819;49.648;8.330;2022-10-16T02:47:50;99905.78;;;14.97;100.00
11525;BME280;5819;49.648;8.330;2022-10-16T02:50:18;99918.78;;;14.99;100.00
11525;BME280;5819;49.648;8.330;2022-10-16T02:52:46;99923.50;;;15.07;100.00
11525;BME280;5819;49.648;8.330;2022-10-16T02:55:13;99926.97;;;15.07;100.00
11525;BME280;5819;49.648;8.330;2022-10-16T02:57:41;99924.34;;;15.07;100.00
11525;BME280;5819;49.648;8.330;2022-10-16T03:00:13;99914.28;;;15.14;100.00
11525;BME280;5819;49.648;8.330;2022-10-16T03:02:41;99929.47;;;15.09;100.00
11525;BME280;5819;49.648;8.330;2022-10-16T03:05:10;99916.25;;;15.10;100.00
11525;BME280;5819;49.648;8.330;2022-10-16T03:07:38;99925.91;;;15.10;100.00
11525;BME280;5819;49.648;8.330;2022-10-16T03:10:06;99924.22;;;15.09;100.00
11525;BME280;5819;49.648;8.330;2022-10-16T03:12:34;99920.97;;;15.05;100.00
11525;BME280;5819;49.648;8.330;2022-10-16T03:15:02;99922.03;;;15.03;100.00
11525;BME280;5819;49.648;8.330;2022-10-16T03:17:32;99926.50;;;15.00;100.00
11525;BME280;5819;49.648;8.330;2022-10-16T03:20:01;99931.03;;;14.98;100.00
11525;BME280;5819;49.648;8.330;2022-10-16T03:22:28;99931.88;;;14.99;100.00
11525;BME280;5819;49.648;8.330;2022-10-16T03:24:56;99931.97;;;14.97;100.00
11525;BME280;5819;49.648;8.330;2022-10-16T03:27:24;99934.59;;;14.97;100.00
11525;BME280;5819;49.648;8.330;2022-10-16T03:29:52;99938.25;;;14.95;100.00
11525;BME280;5819;49.648;8.330;2022-10-16T03:32:20;99938.47;;;14.92;100.00
11525;BME280;5819;49.648;8.330;2022-10-16T03:34:49;99942.03;;;14.91;100.00
11525;BME280;5819;49.648;8.330;2022-10-16T03:37:17;99947.16;;;14.92;100.00
11525;BME280;5819;49.648;8.330;2022-10-16T03:39:45;99944.84;;;15.00;100.00
11525;BME280;5819;49.648;8.330;2022-10-16T03:42:12;99954.41;;;15.02;100.00
11525;BME280;5819;49.648;8.330;2022-10-16T03:44:40;99946.97;;;15.08;100.00
11525;BME280;5819;49.648;8.330;2022-10-16T03:47:08;99948.63;;;15.09;100.00
11525;BME280;5819;49.648;8.330;2022-10-16T03:49:35;99937.31;;;15.09;100.00
11525;BME280;5819;49.648;8.330;2022-10-16T03:52:04;99947.78;;;15.09;100.00
11525;BME280;5819;49.648;8.330;2022-10-16T03:54:32;99954.00;;;15.08;100.00
11525;BME280;5819;49.648;8.330;2022-10-16T03:57:00;99942.56;;;15.09;100.00
11525;BME280;5819;49.648;8.330;2022-10-16T03:59:28;99938.16;;;15.09;100.00
11525;BME280;5819;49.648;8.330;2022-10-16T04:01:55;99936.50;;;15.08;100.00
11525;BME280;5819;49.648;8.330;2022-10-16T04:04:23;99938.59;;;15.03;100.00
11525;BME280;5819;49.648;8.330;2022-10-16T04:06:51;99946.66;;;15.00;100.00
11525;BME280;5819;49.648;8.330;2022-10-16T04:09:21;99935.00;;;14.91;100.00
11525;BME280;5819;49.648;8.330;2022-10-16T04:11:48;99939.38;;;14.78;100.00
11525;BME280;5819;49.648;8.330;2022-10-16T04:14:17;99948.38;;;14.74;100.00
11525;BME280;5819;49.648;8.330;2022-10-16T04:16:44;99958.00;;;14.74;100.00
11525;BME280;5819;49.648;8.330;2022-10-16T04:19:12;99951.00;;;14.74;100.00
11525;BME280;5819;49.648;8.330;2022-10-16T04:21:40;99950.16;;;14.74;100.00
11525;BME280;5819;49.648;8.330;2022-10-16T04:24:08;99946.50;;;14.76;100.00
11525;BME280;5819;49.648;8.330;2022-10-16T04:26:39;99966.91;;;14.71;100.00
11525;BME280;5819;49.648;8.330;2022-10-16T04:29:06;99972.25;;;14.70;100.00
11525;BME280;5819;49.648;8.330;2022-10-16T04:31:34;99976.53;;;14.71;100.00
11525;BME280;5819;49.648;8.330;2022-10-16T04:34:02;99981.88;;;14.69;100.00
11525;BME280;5819;49.648;8.330;2022-10-16T04:36:29;99969.63;;;14.70;100.00
11525;BME280;5819;49.648;8.330;2022-10-16T04:38:57;99962.41;;;14.73;100.00
11525;BME280;5819;49.648;8.330;2022-10-16T04:41:25;99952.56;;;14.77;100.00
11525;BME280;5819;49.648;8.330;2022-10-16T04:43:54;99952.91;;;14.72;100.00
11525;BME280;5819;49.648;8.330;2022-10-16T04:46:21;99953.28;;;14.66;100.00
11525;BME280;5819;49.648;8.330;2022-10-16T04:48:49;99956.09;;;14.63;100.00
11525;BME280;5819;49.648;8.330;2022-10-16T04:51:17;99948.63;;;14.57;100.00
11525;BME280;5819;49.648;8.330;2022-10-16T04:53:45;99948.13;;;14.65;100.00
11525;BME280;5819;49.648;8.330;2022-10-16T04:56:12;99944.50;;;14.67;100.00
11525;BME280;5819;49.648;8.330;2022-10-16T04:58:41;99934.75;;;14.69;100.00
11525;BME280;5819;49.648;8.330;2022-10-16T05:01:10;99947.94;;;14.68;100.00
11525;BME280;5819;49.648;8.330;2022-10-16T05:03:38;99952.97;;;14.71;100.00
11525;BME280;5819;49.648;8.330;2022-10-16T05:06:06;99946.50;;;14.76;100.00
11525;BME280;5819;49.648;8.330;2022-10-16T05:08:34;99952.69;;;14.75;100.00
11525;BME280;5819;49.648;8.330;2022-10-16T05:11:01;99957.06;;;14.75;100.00
11525;BME280;5819;49.648;8.330;2022-10-16T05:13:29;99943.78;;;14.78;100.00
11525;BME280;5819;49.648;8.330;2022-10-16T05:15:57;99948.16;;;14.77;100.00
11525;BME280;5819;49.648;8.330;2022-10-16T05:18:26;99943.69;;;14.79;100.00
11525;BME280;5819;49.648;8.330;2022-10-16T05:20:54;99951.63;;;14.78;100.00
11525;BME280;5819;49.648;8.330;2022-10-16T05:23:21;99955.09;;;14.78;100.00
11525;BME280;5819;49.648;8.330;2022-10-16T05:25:53;99950.91;;;14.76;100.00
11525;BME280;5819;49.648;8.330;2022-10-16T05:28:22;99968.47;;;14.74;100.00
11525;BME280;5819;49.648;8.330;2022-10-16T05:30:49;99974.66;;;14.73;100.00
11525;BME280;5819;49.648;8.330;2022-10-16T05:33:19;99976.03;;;14.78;100.00
11525;BME280;5819;49.648;8.330;2022-10-16T05:35:48;99985.59;;;14.79;100.00
11525;BME280;5819;49.648;8.330;2022-10-16T05:38:16;99990.81;;;14.79;100.00
11525;BME280;5819;49.648;8.330;2022-10-16T05:40:50;99994.38;;;14.78;100.00
11525;BME280;5819;49.648;8.330;2022-10-16T05:43:18;99983.50;;;14.84;100.00
11525;BME280;5819;49.648;8.330;2022-10-16T05:45:53;99985.47;;;14.81;100.00
11525;BME280;5819;49.648;8.330;2022-10-16T05:48:21;99995.31;;;14.77;100.00
11525;BME280;5819;49.648;8.330;2022-10-16T05:50:58;99993.66;;;14.76;100.00
11525;BME280;5819;49.648;8.330;2022-10-16T05:53:27;99993.72;;;14.75;100.00
11525;BME280;5819;49.648;8.330;2022-10-16T05:55:55;100004.00;;;14.78;100.00
11525;BME280;5819;49.648;8.330;2022-10-16T05:58:27;100004.84;;;14.78;100.00
11525;BME280;5819;49.648;8.330;2022-10-16T06:00:56;100000.16;;;14.83;100.00
11525;BME280;5819;49.648;8.330;2022-10-16T06:03:24;100009.69;;;14.84;100.00
11525;BME280;5819;49.648;8.330;2022-10-16T06:05:53;100017.72;;;14.81;100.00
11525;BME280;5819;49.648;8.330;2022-10-16T06:08:22;100019.41;;;14.82;100.00
11525;BME280;5819;49.648;8.330;2022-10-16T06:11:00;100026.22;;;14.85;100.00
11525;BME280;5819;49.648;8.330;2022-10-16T06:13:28;100026.34;;;14.83;100.00
11525;BME280;5819;49.648;8.330;2022-10-16T06:15:57;100021.94;;;14.84;100.00
11525;BME280;5819;49.648;8.330;2022-10-16T06:18:25;100019.63;;;14.79;100.00
11525;BME280;5819;49.648;8.330;2022-10-16T06:20:53;100016.38;;;14.76;100.00
11525;BME280;5819;49.648;8.330;2022-10-16T06:23:23;100006.91;;;14.73;100.00
11525;BME280;5819;49.648;8.330;2022-10-16T06:25:51;100022.75;;;14.72;100.00
11525;BME280;5819;49.648;8.330;2022-10-16T06:28:19;100034.78;;;14.74;100.00
11525;BME280;5819;49.648;8.330;2022-10-16T06:30:47;100018.78;;;14.79;100.00
11525;BME280;5819;49.648;8.330;2022-10-16T06:33:14;100021.81;;;14.85;100.00
11525;BME280;5819;49.648;8.330;2022-10-16T06:35:42;100028.66;;;14.88;100.00
11525;BME280;5819;49.648;8.330;2022-10-16T06:38:10;100031.47;;;14.85;100.00
11525;BME280;5819;49.648;8.330;2022-10-16T06:40:39;100039.31;;;14.85;100.00
11525;BME280;5819;49.648;8.330;2022-10-16T06:43:07;100047.63;;;14.91;100.00
11525;BME280;5819;49.648;8.330;2022-10-16T06:45:34;100041.13;;;14.97;100.00
11525;BME280;5819;49.648;8.330;2022-10-16T06:48:02;100035.50;;;15.03;100.00
11525;BME280;5819;49.648;8.330;2022-10-16T06:50:30;100034.47;;;15.06;100.00
11525;BME280;5819;49.648;8.330;2022-10-16T06:52:58;100047.47;;;15.07;100.00
11525;BME280;5819;49.648;8.330;2022-10-16T06:55:26;100045.19;;;15.15;100.00
11525;BME280;5819;49.648;8.330;2022-10-16T06:57:55;100046.22;;;15.13;100.00
11525;BME280;5819;49.648;8.330;2022-10-16T07:00:23;100050.44;;;15.15;100.00
11525;BME280;5819;49.648;8.330;2022-10-16T07:02:55;100048.00;;;15.12;100.00
11525;BME280;5819;49.648;8.330;2022-10-16T07:05:23;100055.75;;;15.14;100.00
11525;BME280;5819;49.648;8.330;2022-10-16T07:07:51;100056.50;;;15.16;100.00
11525;BME280;5819;49.648;8.330;2022-10-16T07:10:19;100062.69;;;15.15;100.00
11525;BME280;5819;49.648;8.330;2022-10-16T07:12:50;100060.59;;;15.20;100.00
11525;BME280;5819;49.648;8.330;2022-10-16T07:15:20;100060.59;;;15.20;100.00
11525;BME280;5819;49.648;8.330;2022-10-16T07:17:47;100072.66;;;15.22;100.00
11525;BME280;5819;49.648;8.330;2022-10-16T07:20:15;100077.69;;;15.25;100.00
11525;BME280;5819;49.648;8.330;2022-10-16T07:22:43;100080.00;;;15.30;100.00
11525;BME280;5819;49.648;8.330;2022-10-16T07:25:11;100075.31;;;15.35;100.00
11525;BME280;5819;49.648;8.330;2022-10-16T07:27:39;100079.41;;;15.39;100.00
11525;BME280;5819;49.648;8.330;2022-10-16T07:30:08;100084.66;;;15.39;100.00
11525;BME280;5819;49.648;8.330;2022-10-16T07:32:37;100089.81;;;15.40;100.00
11525;BME280;5819;49.648;8.330;2022-10-16T07:35:06;100084.44;;;15.42;100.00
11525;BME280;5819;49.648;8.330;2022-10-16T07:37:34;100100.06;;;15.43;100.00
11525;BME280;5819;49.648;8.330;2022-10-16T07:40:02;100095.47;;;15.47;100.00
11525;BME280;5819;49.648;8.330;2022-10-16T07:42:30;100098.19;;;15.45;100.00
11525;BME280;5819;49.648;8.330;2022-10-16T07:44:57;100099.03;;;15.46;100.00
11525;BME280;5819;49.648;8.330;2022-10-16T07:47:25;100102.06;;;15.40;100.00
11525;BME280;5819;49.648;8.330;2022-10-16T07:49:55;100110.44;;;15.45;100.00
11525;BME280;5819;49.648;8.330;2022-10-16T07:52:22;100117.28;;;15.48;100.00
11525;BME280;5819;49.648;8.330;2022-10-16T07:54:50;100114.53;;;15.49;100.00
11525;BME280;5819;49.648;8.330;2022-10-16T07:57:18;100109.03;;;15.54;100.00
11525;BME280;5819;49.648;8.330;2022-10-16T07:59:46;100106.41;;;15.54;100.00
11525;BME280;5819;49.648;8.330;2022-10-16T08:02:14;100115.13;;;15.54;100.00
11525;BME280;5819;49.648;8.330;2022-10-16T08:04:42;100122.97;;;15.54;100.00
11525;BME280;5819;49.648;8.330;2022-10-16T08:07:11;100133.75;;;15.50;100.00
11525;BME280;5819;49.648;8.330;2022-10-16T08:09:38;100133.69;;;15.51;100.00
11525;BME280;5819;49.648;8.330;2022-10-16T08:12:07;100134.69;;;15.49;100.00
11525;BME280;5819;49.648;8.330;2022-10-16T08:14:36;100143.50;;;15.48;100.00
11525;BME280;5819;49.648;8.330;2022-10-16T08:17:06;100154.19;;;15.44;100.00
11525;BME280;5819;49.648;8.330;2022-10-16T08:19:33;100175.34;;;15.41;100.00
11525;BME280;5819;49.648;8.330;2022-10-16T08:22:01;100184.69;;;15.45;100.00
11525;BME280;5819;49.648;8.330;2022-10-16T08:24:30;100181.44;;;15.42;100.00
11525;BME280;5819;49.648;8.330;2022-10-16T08:26:58;100190.63;;;15.35;100.00
11525;BME280;5819;49.648;8.330;2022-10-16T08:29:26;100184.47;;;15.36;100.00
11525;BME280;5819;49.648;8.330;2022-10-16T08:31:54;100189.69;;;15.36;100.00
11525;BME280;5819;49.648;8.330;2022-10-16T08:34:22;100179.84;;;15.39;100.00
11525;BME280;5819;49.648;8.330;2022-10-16T08:36:49;100169.56;;;15.36;100.00
11525;BME280;5819;49.648;8.330;2022-10-16T08:39:17;100174.81;;;15.36;100.00
11525;BME280;5819;49.648;8.330;2022-10-16T08:42:16;100167.78;;;15.37;100.00
11525;BME280;5819;49.648;8.330;2022-10-16T08:45:07;100192.31;;;15.36;100.00
11525;BME280;5819;49.648;8.330;2022-10-16T08:47:49;100185.81;;;15.41;100.00
11525;BME280;5819;49.648;8.330;2022-10-16T08:50:22;100194.06;;;15.50;100.00
11525;BME280;5819;49.648;8.330;2022-10-16T08:52:51;100190.66;;;15.62;100.00
11525;BME280;5819;49.648;8.330;2022-10-16T08:55:32;100195.84;;;15.76;100.00
11525;BME280;5819;49.648;8.330;2022-10-16T08:58:10;100183.56;;;15.89;100.00
11525;BME280;5819;49.648;8.330;2022-10-16T09:00:39;100183.72;;;16.00;100.00
11525;BME280;5819;49.648;8.330;2022-10-16T09:03:16;100209.81;;;16.02;100.00
11525;BME280;5819;49.648;8.330;2022-10-16T09:05:52;100212.06;;;16.08;100.00
11525;BME280;5819;49.648;8.330;2022-10-16T09:08:28;100216.69;;;16.17;100.00
11525;BME280;5819;49.648;8.330;2022-10-16T09:11:00;100203.44;;;16.18;100.00
11525;BME280;5819;49.648;8.330;2022-10-16T09:13:42;100193.69;;;16.08;100.00
11525;BME280;5819;49.648;8.330;2022-10-16T09:16:16;100203.66;;;16.15;100.00
11525;BME280;5819;49.648;8.330;2022-10-16T09:18:53;100201.75;;;16.30;100.00
11525;BME280;5819;49.648;8.330;2022-10-16T09:21:24;100204.63;;;16.39;100.00
11525;BME280;5819;49.648;8.330;2022-10-16T09:23:54;100209.75;;;16.41;100.00
11525;BME280;5819;49.648;8.330;2022-10-16T09:26:24;100213.13;;;16.43;100.00
11525;BME280;5819;49.648;8.330;2022-10-16T09:28:53;100211.22;;;16.45;100.00
11525;BME280;5819;49.648;8.330;2022-10-16T09:31:22;100217.75;;;16.39;100.00
11525;BME280;5819;49.648;8.330;2022-10-16T09:33:54;100219.75;;;16.49;100.00
11525;BME280;5819;49.648;8.330;2022-10-16T09:36:27;100219.88;;;16.60;100.00
11525;BME280;5819;49.648;8.330;2022-10-16T09:39:03;100229.94;;;16.66;100.00
11525;BME280;5819;49.648;8.330;2022-10-16T09:41:34;100222.16;;;16.77;100.00
11525;BME280;5819;49.648;8.330;2022-10-16T09:44:12;100216.88;;;16.90;100.00
11525;BME280;5819;49.648;8.330;2022-10-16T09:46:42;100225.72;;;16.89;100.00
11525;BME280;5819;49.648;8.330;2022-10-16T09:49:21;100222.53;;;17.09;100.00
11525;BME280;5819;49.648;8.330;2022-10-16T09:51:50;100216.72;;;17.16;100.00
11525;BME280;5819;49.648;8.330;2022-10-16T09:54:21;100222.91;;;17.15;100.00
11525;BME280;5819;49.648;8.330;2022-10-16T09:56:49;100217.84;;;17.25;100.00
11525;BME280;5819;49.648;8.330;2022-10-16T09:59:21;100213.25;;;17.40;100.00
11525;BME280;5819;49.648;8.330;2022-10-16T10:01:54;100222.13;;;17.50;100.00
11525;BME280;5819;49.648;8.330;2022-10-16T10:04:23;100222.84;;;17.64;100.00
11525;BME280;5819;49.648;8.330;2022-10-16T10:06:53;100229.78;;;17.65;100.00
11525;BME280;5819;49.648;8.330;2022-10-16T10:09:23;100232.69;;;17.73;100.00
11525;BME280;5819;49.648;8.330;2022-10-16T10:11:53;100235.78;;;17.67;100.00
11525;BME280;5819;49.648;8.330;2022-10-16T10:14:28;100235.25;;;17.86;100.00
11525;BME280;5819;49.648;8.330;2022-10-16T10:17:18;100235.16;;;17.88;100.00
11525;BME280;5819;49.648;8.330;2022-10-16T10:19:49;100241.88;;;18.03;100.00
11525;BME280;5819;49.648;8.330;2022-10-16T10:22:30;100244.16;;;17.96;100.00
11525;BME280;5819;49.648;8.330;2022-10-16T10:25:15;100253.81;;;17.85;100.00
11525;BME280;5819;49.648;8.330;2022-10-16T10:27:53;100240.97;;;18.15;100.00
11525;BME280;5819;49.648;8.330;2022-10-16T10:30:31;100253.78;;;18.08;100.00
11525;BME280;5819;49.648;8.330;2022-10-16T10:33:14;100255.81;;;18.16;100.00
11525;BME280;5819;49.648;8.330;2022-10-16T10:35:53;100258.84;;;18.34;100.00
11525;BME280;5819;49.648;8.330;2022-10-16T10:38:34;100262.94;;;18.03;100.00
11525;BME280;5819;49.648;8.330;2022-10-16T10:41:16;100258.69;;;18.13;100.00
11525;BME280;5819;49.648;8.330;2022-10-16T10:44:01;100260.16;;;18.17;100.00
11525;BME280;5819;49.648;8.330;2022-10-16T10:46:35;100248.63;;;18.53;100.00
11525;BME280;5819;49.648;8.330;2022-10-16T10:49:22;100245.25;;;18.62;100.00
11525;BME280;5819;49.648;8.330;2022-10-16T10:52:00;100248.94;;;18.48;100.00
11525;BME280;5819;49.648;8.330;2022-10-16T10:54:33;100259.22;;;18.40;100.00
11525;BME280;5819;49.648;8.330;2022-10-16T10:57:10;100261.38;;;18.35;100.00
11525;BME280;5819;49.648;8.330;2022-10-16T11:00:03;100253.97;;;18.40;100.00
11525;BME280;5819;49.648;8.330;2022-10-16T11:02:40;100261.94;;;18.28;100.00
11525;BME280;5819;49.648;8.330;2022-10-16T11:05:38;100262.56;;;18.31;100.00
11525;BME280;5819;49.648;8.330;2022-10-16T11:08:11;100262.56;;;18.31;100.00
11525;BME280;5819;49.648;8.330;2022-10-16T11:10:49;100263.06;;;18.47;100.00
11525;BME280;5819;49.648;8.330;2022-10-16T11:13:23;100269.13;;;18.25;100.00
11525;BME280;5819;49.648;8.330;2022-10-16T11:15:57;100272.66;;;18.37;100.00
11525;BME280;5819;49.648;8.330;2022-10-16T11:18:32;100276.53;;;18.20;100.00
11525;BME280;5819;49.648;8.330;2022-10-16T11:21:04;100271.41;;;18.30;100.00
11525;BME280;5819;49.648;8.330;2022-10-16T11:23:38;100266.00;;;18.55;100.00
11525;BME280;5819;49.648;8.330;2022-10-16T11:26:13;100271.16;;;18.57;100.00
11525;BME280;5819;49.648;8.330;2022-10-16T11:28:45;100261.47;;;18.68;100.00
11525;BME280;5819;49.648;8.330;2022-10-16T11:31:19;100260.72;;;18.66;100.00
11525;BME280;5819;49.648;8.330;2022-10-16T11:33:54;100254.41;;;18.69;100.00
11525;BME280;5819;49.648;8.330;2022-10-16T11:36:29;100261.22;;;18.72;100.00
11525;BME280;5819;49.648;8.330;2022-10-16T11:39:07;100262.53;;;18.88;100.00
11525;BME280;5819;49.648;8.330;2022-10-16T11:41:41;100273.31;;;18.74;100.00
11525;BME280;5819;49.648;8.330;2022-10-16T11:44:19;100272.25;;;18.88;100.00
11525;BME280;5819;49.648;8.330;2022-10-16T11:46:52;100269.38;;;18.80;100.00
11525;BME280;5819;49.648;8.330;2022-10-16T11:49:49;100264.69;;;18.61;100.00
11525;BME280;5819;49.648;8.330;2022-10-16T11:52:20;100275.34;;;18.59;100.00
11525;BME280;5819;49.648;8.330;2022-10-16T11:54:54;100281.34;;;18.61;100.00
11525;BME280;5819;49.648;8.330;2022-10-16T11:57:25;100272.69;;;18.59;100.00
11525;BME280;5819;49.648;8.330;2022-10-16T11:59:57;100275.56;;;18.56;100.00
11525;BME280;5819;49.648;8.330;2022-10-16T12:02:35;100279.81;;;18.46;100.00
11525;BME280;5819;49.648;8.330;2022-10-16T12:05:15;100277.94;;;18.48;100.00
11525;BME280;5819;49.648;8.330;2022-10-16T12:07:52;100271.50;;;18.52;100.00
11525;BME280;5819;49.648;8.330;2022-10-16T12:10:25;100260.13;;;18.74;100.00
11525;BME280;5819;49.648;8.330;2022-10-16T12:12:53;100259.06;;;18.99;100.00
11525;BME280;5819;49.648;8.330;2022-10-16T12:15:25;100260.47;;;19.14;100.00
11525;BME280;5819;49.648;8.330;2022-10-16T12:18:21;100252.69;;;19.24;100.00
11525;BME280;5819;49.648;8.330;2022-10-16T12:20:56;100259.66;;;19.25;100.00
11525;BME280;5819;49.648;8.330;2022-10-16T12:23:26;100270.69;;;19.07;100.00
11525;BME280;5819;49.648;8.330;2022-10-16T12:25:55;100269.25;;;18.92;100.00
11525;BME280;5819;49.648;8.330;2022-10-16T12:28:27;100273.69;;;18.92;100.00
11525;BME280;5819;49.648;8.330;2022-10-16T12:30:57;100275.00;;;18.86;100.00
11525;BME280;5819;49.648;8.330;2022-10-16T12:33:28;100272.25;;;18.88;100.00
11525;BME280;5819;49.648;8.330;2022-10-16T12:35:59;100271.28;;;18.89;100.00
11525;BME280;5819;49.648;8.330;2022-10-16T12:38:32;100263.50;;;18.87;100.00
11525;BME280;5819;49.648;8.330;2022-10-16T12:41:05;100266.97;;;18.88;100.00
11525;BME280;5819;49.648;8.330;2022-10-16T12:43:37;100273.31;;;18.74;100.00
11525;BME280;5819;49.648;8.330;2022-10-16T12:46:21;100255.59;;;18.76;100.00
11525;BME280;5819;49.648;8.330;2022-10-16T12:48:50;100253.03;;;19.19;100.00
11525;BME280;5819;49.648;8.330;2022-10-16T12:51:36;100247.84;;;19.40;100.00
11525;BME280;5819;49.648;8.330;2022-10-16T12:54:12;100257.72;;;19.38;100.00
11525;BME280;5819;49.648;8.330;2022-10-16T12:56:46;100258.19;;;19.32;100.00
11525;BME280;5819;49.648;8.330;2022-10-16T12:59:24;100258.28;;;19.30;100.00
11525;BME280;5819;49.648;8.330;2022-10-16T13:05:02;100278.13;;;19.13;100.00
11525;BME280;5819;49.648;8.330;2022-10-16T13:07:49;100266.00;;;19.00;100.00
11525;BME280;5819;49.648;8.330;2022-10-16T13:10:25;100267.09;;;18.97;100.00
11525;BME280;5819;49.648;8.330;2022-10-16T13:13:26;100267.09;;;18.86;100.00
11525;BME280;5819;49.648;8.330;2022-10-16T13:16:08;100286.88;;;18.69;100.00
11525;BME280;5819;49.648;8.330;2022-10-16T13:18:43;100281.69;;;18.68;100.00
11525;BME280;5819;49.648;8.330;2022-10-16T13:21:20;100270.91;;;18.71;100.00
11525;BME280;5819;49.648;8.330;2022-10-16T13:23:59;100272.84;;;18.69;100.00